Time;durP1;ratioP1;P1;durP2;ratioP2;P2;SDS_P1;SDS_P2;PMS_P1;PMS_P2;Temp;Humidity;BMP_temperature;BMP_pressure;BME280_temperature;BME280_humidity;BME280_pressure;Samples;Min_cycle;Max_cycle;Signal;HPM_P1;HPM_P2
2021/04/03 00:02:05;;;;;;;5.57;4.40;;;;;;;;;;5094832;28;20210;-76
2021/04/03 00:04:31;;;;;;;6.40;4.30;;;;;;;;;;5096903;28;20217;-76
2021/04/03 00:06:57;;;;;;;6.40;4.33;;;;;;;;;;5098488;28;20416;-75
2021/04/03 00:09:24;;;;;;;4.90;3.83;;;;;;;;;;5098445;28;20264;-75
2021/04/03 00:11:50;;;;;;;5.40;3.83;;;;;;;;;;5098279;28;20677;-75
2021/04/03 00:14:16;;;;;;;6.73;3.80;;;;;;;;;;5098178;28;20240;-77
2021/04/03 00:16:42;;;;;;;3.57;2.80;;;;;;;;;;5099074;28;20233;-75
2021/04/03 00:19:09;;;;;;;10.67;3.50;;;;;;;;;;5098672;28;20229;-76
2021/04/03 00:21:35;;;;;;;6.73;3.30;;;;;;;;;;5099390;28;20210;-87
2021/04/03 00:24:02;;;;;;;4.57;3.10;;;;;;;;;;5098810;28;20248;-78
2021/04/03 00:26:28;;;;;;;3.97;3.20;;;;;;;;;;5098713;28;20237;-83
2021/04/03 00:28:54;;;;;;;7.27;2.93;;;;;;;;;;5098888;28;20542;-75
2021/04/03 00:31:20;;;;;;;5.23;2.90;;;;;;;;;;5099066;28;20237;-86
2021/04/03 00:33:46;;;;;;;3.37;2.90;;;;;;;;;;5098820;28;20206;-76
2021/04/03 00:36:13;;;;;;;4.00;2.60;;;;;;;;;;5099035;28;20240;-79
2021/04/03 00:38:39;;;;;;;5.47;2.90;;;;;;;;;;5098239;28;20240;-75
2021/04/03 00:41:06;;;;;;;4.57;2.53;;;;;;;;;;5098609;28;20240;-85
2021/04/03 00:43:32;;;;;;;3.40;2.53;;;;;;;;;;5098959;28;20212;-76
2021/04/03 00:45:58;;;;;;;3.93;2.80;;;;;;;;;;5099024;28;20233;-87
2021/04/03 00:48:24;;;;;;;5.60;2.60;;;;;;;;;;5099426;28;20255;-87
2021/04/03 00:50:51;;;;;;;4.30;2.50;;;;;;;;;;5099436;28;20209;-87
2021/04/03 00:53:20;;;;;;;4.33;2.40;;;;;;;;;;5097919;28;20245;-87
2021/04/03 00:55:47;;;;;;;3.77;2.30;;;;;;;;;;5099175;28;20494;-76
2021/04/03 00:58:13;;;;;;;3.60;2.30;;;;;;;;;;5099020;28;20205;-82
2021/04/03 01:00:39;;;;;;;4.23;2.37;;;;;;;;;;5099449;28;20253;-87
2021/04/03 01:03:05;;;;;;;8.47;2.60;;;;;;;;;;5099051;28;20202;-81
2021/04/03 01:05:32;;;;;;;2.93;2.10;;;;;;;;;;5098948;28;20202;-85
2021/04/03 01:07:58;;;;;;;4.33;2.30;;;;;;;;;;5097700;28;20245;-77
2021/04/03 01:10:28;;;;;;;3.47;2.17;;;;;;;;;;5098333;28;20286;-79
2021/04/03 01:12:57;;;;;;;4.20;1.93;;;;;;;;;;5097630;28;20217;-80
2021/04/03 01:15:26;;;;;;;2.60;1.60;;;;;;;;;;5096371;28;20202;-76
2021/04/03 01:18:02;;;;;;;2.73;2.00;;;;;;;;;;5097984;28;20541;-86
2021/04/03 01:20:43;;;;;;;3.53;1.90;;;;;;;;;;5098082;28;20770;-83
2021/04/03 01:23:27;;;;;;;3.90;2.27;;;;;;;;;;5097910;28;20217;-85
2021/04/03 01:26:02;;;;;;;3.80;1.80;;;;;;;;;;5098242;28;20247;-83
2021/04/03 01:28:52;;;;;;;4.63;2.00;;;;;;;;;;5098315;28;20201;-87
2021/04/03 01:31:19;;;;;;;2.77;1.90;;;;;;;;;;5082832;28;20210;-88
2021/04/03 01:33:46;;;;;;;4.73;2.10;;;;;;;;;;5097299;28;20214;-87
2021/04/03 01:36:14;;;;;;;2.00;1.70;;;;;;;;;;5098160;28;20206;-86
2021/04/03 01:38:44;;;;;;;5.40;2.00;;;;;;;;;;5098434;28;20210;-81
2021/04/03 01:41:11;;;;;;;2.10;1.90;;;;;;;;;;5096553;28;20263;-86
2021/04/03 01:43:41;;;;;;;5.33;2.23;;;;;;;;;;5097825;28;20201;-83
2021/04/03 01:46:07;;;;;;;4.03;1.87;;;;;;;;;;5097475;28;20238;-76
2021/04/03 01:48:35;;;;;;;5.47;1.87;;;;;;;;;;5097081;28;20209;-76
2021/04/03 01:51:02;;;;;;;4.77;2.13;;;;;;;;;;5097416;28;20240;-86
2021/04/03 01:53:29;;;;;;;2.40;1.90;;;;;;;;;;5096897;28;20256;-87
2021/04/03 01:55:56;;;;;;;3.43;2.00;;;;;;;;;;5097264;28;20229;-75
2021/04/03 01:58:22;;;;;;;3.13;1.73;;;;;;;;;;5096571;28;20244;-75
2021/04/03 02:00:49;;;;;;;5.23;2.00;;;;;;;;;;5097274;28;20249;-75
2021/04/03 02:03:15;;;;;;;2.23;1.90;;;;;;;;;;5096256;28;20494;-78
2021/04/03 02:05:42;;;;;;;5.53;2.13;;;;;;;;;;5096976;28;20232;-76
2021/04/03 02:08:10;;;;;;;2.17;1.60;;;;;;;;;;5096530;28;20209;-75
2021/04/03 02:10:37;;;;;;;4.07;1.90;;;;;;;;;;5096417;28;20229;-75
2021/04/03 02:13:05;;;;;;;2.23;1.93;;;;;;;;;;5095899;28;20236;-75
2021/04/03 02:15:31;;;;;;;4.07;2.13;;;;;;;;;;5096625;28;20205;-76
2021/04/03 02:17:58;;;;;;;2.20;2.00;;;;;;;;;;5096340;28;20644;-81
2021/04/03 02:20:25;;;;;;;3.10;1.97;;;;;;;;;;5096240;28;20225;-75
2021/04/03 02:22:52;;;;;;;5.60;2.00;;;;;;;;;;5096986;28;20225;-77
2021/04/03 02:25:18;;;;;;;3.73;1.77;;;;;;;;;;5096551;28;20205;-78
2021/04/03 02:27:45;;;;;;;5.20;2.10;;;;;;;;;;5095499;28;20491;-75
2021/04/03 02:30:12;;;;;;;4.27;2.00;;;;;;;;;;5096883;28;20198;-83
2021/04/03 02:32:39;;;;;;;1.97;1.70;;;;;;;;;;5096108;28;20229;-79
2021/04/03 02:35:06;;;;;;;1.77;1.63;;;;;;;;;;5097071;28;20504;-80
2021/04/03 02:37:32;;;;;;;8.07;2.00;;;;;;;;;;5097375;28;20498;-76
2021/04/03 02:39:59;;;;;;;1.97;1.60;;;;;;;;;;5096950;28;20675;-76
2021/04/03 02:42:27;;;;;;;3.80;1.87;;;;;;;;;;5095975;28;20596;-77
2021/04/03 02:44:55;;;;;;;3.93;1.90;;;;;;;;;;5096495;28;20206;-84
2021/04/03 02:47:22;;;;;;;2.00;1.90;;;;;;;;;;5097301;28;20213;-79
2021/04/03 02:49:51;;;;;;;3.40;1.53;;;;;;;;;;5097748;28;20209;-79
2021/04/03 02:52:18;;;;;;;3.57;1.67;;;;;;;;;;5097621;28;20270;-87
2021/04/03 02:54:44;;;;;;;2.73;1.90;;;;;;;;;;5097020;28;20631;-86
2021/04/03 02:57:13;;;;;;;3.57;2.03;;;;;;;;;;5097239;28;20613;-80
2021/04/03 02:59:43;;;;;;;2.23;1.77;;;;;;;;;;5096774;28;20205;-77
2021/04/03 03:02:09;;;;;;;3.60;2.10;;;;;;;;;;5097861;28;20209;-81
2021/04/03 03:04:38;;;;;;;2.97;2.00;;;;;;;;;;5098080;28;20210;-81
2021/04/03 03:07:04;;;;;;;2.27;2.07;;;;;;;;;;5098105;28;20205;-89
2021/04/03 03:09:31;;;;;;;5.17;2.30;;;;;;;;;;5097615;28;20229;-89
2021/04/03 03:11:58;;;;;;;4.83;2.83;;;;;;;;;;5097257;28;20201;-84
2021/04/03 03:14:26;;;;;;;2.80;2.10;;;;;;;;;;5096761;28;20206;-88
2021/04/03 03:16:53;;;;;;;5.13;2.60;;;;;;;;;;5096439;28;20237;-76
2021/04/03 03:19:20;;;;;;;5.93;2.50;;;;;;;;;;5096578;28;20217;-85
2021/04/03 03:21:47;;;;;;;5.47;2.80;;;;;;;;;;5096799;28;20256;-84
2021/04/03 03:24:13;;;;;;;6.27;2.53;;;;;;;;;;5096460;28;20620;-85
2021/04/03 03:26:40;;;;;;;5.23;3.10;;;;;;;;;;5096847;28;20236;-83
2021/04/03 03:29:08;;;;;;;4.17;2.90;;;;;;;;;;5095513;28;20244;-87
2021/04/03 03:31:35;;;;;;;4.00;3.33;;;;;;;;;;5095922;28;20209;-77
2021/04/03 03:34:01;;;;;;;11.87;3.40;;;;;;;;;;5095243;28;20528;-77
2021/04/03 03:36:28;;;;;;;5.90;3.17;;;;;;;;;;5095573;28;20236;-81
2021/04/03 03:38:54;;;;;;;4.10;3.17;;;;;;;;;;5096598;28;20244;-76
2021/04/03 03:41:21;;;;;;;5.03;3.50;;;;;;;;;;5099920;28;20260;-79
2021/04/03 03:43:47;;;;;;;7.17;3.73;;;;;;;;;;5099972;28;20608;-75
2021/04/03 03:46:13;;;;;;;7.87;3.47;;;;;;;;;;5099528;28;20537;-75
2021/04/03 03:48:40;;;;;;;5.30;3.50;;;;;;;;;;5100779;28;20204;-77
2021/04/03 03:51:06;;;;;;;5.57;3.60;;;;;;;;;;5099549;28;20201;-81
2021/04/03 03:53:33;;;;;;;4.13;3.40;;;;;;;;;;5099055;28;20228;-75
2021/04/03 03:55:59;;;;;;;6.60;3.70;;;;;;;;;;5099587;28;20229;-80
2021/04/03 03:58:25;;;;;;;5.10;3.80;;;;;;;;;;5099234;28;20217;-77
2021/04/03 04:00:51;;;;;;;9.03;4.07;;;;;;;;;;5100165;28;20257;-83
2021/04/03 04:03:17;;;;;;;7.20;3.57;;;;;;;;;;5097371;28;20197;-85
2021/04/03 04:05:44;;;;;;;4.80;3.90;;;;;;;;;;5100028;28;20237;-78
2021/04/03 04:08:11;;;;;;;4.80;3.53;;;;;;;;;;5099267;28;20213;-84
2021/04/03 04:10:37;;;;;;;5.53;3.70;;;;;;;;;;5099684;28;20222;-85
2021/04/03 04:13:03;;;;;;;7.20;4.00;;;;;;;;;;5099404;28;20236;-77
2021/04/03 04:15:30;;;;;;;6.70;4.17;;;;;;;;;;5099862;28;20233;-80
2021/04/03 04:17:56;;;;;;;7.28;4.28;;;;;;;;;;5099100;28;20787;-84
2021/04/03 04:20:22;;;;;;;6.87;4.33;;;;;;;;;;5100064;28;20249;-81
2021/04/03 04:22:49;;;;;;;6.13;3.77;;;;;;;;;;5099569;28;20237;-86
2021/04/03 04:25:15;;;;;;;6.00;3.73;;;;;;;;;;5100635;28;20202;-88
2021/04/03 04:27:41;;;;;;;9.67;4.17;;;;;;;;;;5100155;28;20210;-84
2021/04/03 04:30:12;;;;;;;4.93;3.60;;;;;;;;;;5100630;28;20542;-87
2021/04/03 04:32:38;;;;;;;5.53;3.80;;;;;;;;;;5100042;28;20216;-80
2021/04/03 04:35:05;;;;;;;5.97;3.37;;;;;;;;;;5100057;28;20208;-78
2021/04/03 04:37:31;;;;;;;4.67;3.80;;;;;;;;;;5100004;28;20205;-86
2021/04/03 04:39:59;;;;;;;9.97;4.13;;;;;;;;;;5099224;28;20217;-77
2021/04/03 04:42:25;;;;;;;6.73;3.60;;;;;;;;;;5100382;28;20684;-86
2021/04/03 04:44:51;;;;;;;10.87;5.73;;;;;;;;;;5099928;28;20206;-82
2021/04/03 04:47:17;;;;;;;12.03;7.47;;;;;;;;;;5099170;28;20210;-82
2021/04/03 04:49:43;;;;;;;11.57;5.33;;;;;;;;;;5098714;28;20215;-84
2021/04/03 04:52:09;;;;;;;9.00;4.13;;;;;;;;;;5098326;28;20229;-84
2021/04/03 04:54:35;;;;;;;8.20;3.97;;;;;;;;;;5099487;28;20221;-77
2021/04/03 04:57:03;;;;;;;4.83;4.00;;;;;;;;;;5099665;28;20236;-84
2021/04/03 04:59:29;;;;;;;5.93;4.27;;;;;;;;;;5099833;28;20206;-78
2021/04/03 05:01:56;;;;;;;4.40;3.90;;;;;;;;;;5099316;28;20260;-80
2021/04/03 05:04:22;;;;;;;8.00;3.77;;;;;;;;;;5099762;28;20201;-82
2021/04/03 05:06:48;;;;;;;5.90;3.70;;;;;;;;;;5099195;28;20202;-87
2021/04/03 05:09:14;;;;;;;7.73;4.00;;;;;;;;;;5098583;28;20571;-76
2021/04/03 05:11:40;;;;;;;6.43;3.73;;;;;;;;;;5098071;28;20233;-84
2021/04/03 05:14:07;;;;;;;6.90;4.17;;;;;;;;;;5098420;28;20240;-76
2021/04/03 05:16:33;;;;;;;9.03;3.93;;;;;;;;;;5097941;28;20233;-80
2021/04/03 05:18:59;;;;;;;6.30;3.93;;;;;;;;;;5098285;28;20566;-76
2021/04/03 05:21:25;;;;;;;4.20;3.77;;;;;;;;;;5097342;28;20245;-83
2021/04/03 05:23:52;;;;;;;6.77;3.93;;;;;;;;;;5097807;28;20228;-77
2021/04/03 05:26:18;;;;;;;7.00;4.13;;;;;;;;;;5098913;28;20226;-91
2021/04/03 05:28:44;;;;;;;5.63;3.87;;;;;;;;;;5097511;28;20486;-88
2021/04/03 05:31:11;;;;;;;5.83;4.10;;;;;;;;;;5099506;28;20202;-79
2021/04/03 05:33:37;;;;;;;4.87;4.30;;;;;;;;;;5097842;28;20198;-86
2021/04/03 05:36:04;;;;;;;7.23;4.20;;;;;;;;;;5099052;28;20206;-81
2021/04/03 05:38:30;;;;;;;3.87;3.57;;;;;;;;;;5098298;28;20645;-87
2021/04/03 05:40:56;;;;;;;8.00;3.87;;;;;;;;;;5098012;28;20300;-78
2021/04/03 05:43:22;;;;;;;6.27;4.10;;;;;;;;;;5097512;28;20704;-78
2021/04/03 05:45:50;;;;;;;10.20;4.27;;;;;;;;;;5097688;28;20225;-85
2021/04/03 05:48:18;;;;;;;7.73;4.60;;;;;;;;;;5096969;28;20205;-77
2021/04/03 05:50:44;;;;;;;7.00;4.77;;;;;;;;;;5097770;28;20236;-84
2021/04/03 05:53:10;;;;;;;6.50;4.80;;;;;;;;;;5097216;28;20206;-77
2021/04/03 05:55:36;;;;;;;6.23;4.37;;;;;;;;;;5097062;28;20202;-77
2021/04/03 05:58:03;;;;;;;8.07;4.73;;;;;;;;;;5096643;28;20202;-76
2021/04/03 06:00:29;;;;;;;5.97;4.47;;;;;;;;;;5097267;28;20245;-75
2021/04/03 06:02:55;;;;;;;9.90;4.60;;;;;;;;;;5095919;28;20237;-76
2021/04/03 06:05:22;;;;;;;8.27;4.53;;;;;;;;;;5096809;28;20229;-76
2021/04/03 06:07:48;;;;;;;8.17;4.03;;;;;;;;;;5096776;28;20554;-79
2021/04/03 06:10:14;;;;;;;11.93;4.33;;;;;;;;;;5097253;28;20253;-81
2021/04/03 06:12:44;;;;;;;6.83;4.47;;;;;;;;;;5097221;28;20201;-79
2021/04/03 06:15:11;;;;;;;7.97;4.33;;;;;;;;;;5097925;28;20232;-74
2021/04/03 06:17:38;;;;;;;8.47;4.53;;;;;;;;;;5096628;28;20234;-75
2021/04/03 06:20:04;;;;;;;8.27;4.90;;;;;;;;;;5097441;28;20213;-80
2021/04/03 06:22:44;;;;;;;7.37;4.53;;;;;;;;;;5097199;28;20250;-80
2021/04/03 06:25:11;;;;;;;7.23;4.70;;;;;;;;;;5097045;28;20209;-82
2021/04/03 06:27:37;;;;;;;7.57;4.50;;;;;;;;;;5096982;28;20198;-82
2021/04/03 06:30:13;;;;;;;7.07;4.77;;;;;;;;;;5096558;28;20476;-86
2021/04/03 06:32:40;;;;;;;4.90;4.43;;;;;;;;;;5097775;28;20198;-80
2021/04/03 06:35:06;;;;;;;7.20;4.30;;;;;;;;;;5096870;28;20217;-81
2021/04/03 06:37:34;;;;;;;5.90;4.57;;;;;;;;;;5097332;28;20217;-82
2021/04/03 06:40:03;;;;;;;9.80;4.70;;;;;;;;;;5097499;28;20498;-81
2021/04/03 06:42:43;;;;;;;10.63;4.47;;;;;;;;;;5091245;28;20252;-77
2021/04/03 06:45:18;;;;;;;9.97;5.00;;;;;;;;;;5080567;28;20609;-79
2021/04/03 06:47:45;;;;;;;7.83;4.53;;;;;;;;;;5097970;28;20205;-80
2021/04/03 06:50:11;;;;;;;5.83;4.50;;;;;;;;;;5088698;28;20207;-77
2021/04/03 06:52:39;;;;;;;7.13;4.40;;;;;;;;;;5076812;28;20214;-77
2021/04/03 06:55:06;;;;;;;7.17;4.10;;;;;;;;;;5076823;28;20310;-83
2021/04/03 06:57:34;;;;;;;6.77;4.23;;;;;;;;;;5076627;28;20206;-76
2021/04/03 07:00:00;;;;;;;7.50;4.43;;;;;;;;;;5076665;28;20210;-76
2021/04/03 07:02:27;;;;;;;8.50;4.73;;;;;;;;;;5076321;28;20257;-83
2021/04/03 07:04:54;;;;;;;10.60;4.73;;;;;;;;;;5076936;28;20878;-80
2021/04/03 07:07:20;;;;;;;5.63;4.17;;;;;;;;;;5076167;28;20259;-81
2021/04/03 07:09:47;;;;;;;7.43;3.30;;;;;;;;;;5075181;28;20635;-77
2021/04/03 07:12:16;;;;;;;4.70;2.80;;;;;;;;;;5075427;28;20206;-75
2021/04/03 07:14:42;;;;;;;5.20;3.53;;;;;;;;;;5075225;28;20233;-77
2021/04/03 07:17:08;;;;;;;6.93;3.40;;;;;;;;;;5095165;28;20233;-80
2021/04/03 07:19:36;;;;;;;5.90;3.33;;;;;;;;;;5095356;28;20603;-81
2021/04/03 07:22:03;;;;;;;4.67;2.90;;;;;;;;;;5094988;28;20249;-77
2021/04/03 07:24:29;;;;;;;4.20;3.13;;;;;;;;;;5096029;28;20244;-77
2021/04/03 07:26:56;;;;;;;4.33;3.13;;;;;;;;;;5095243;28;20234;-78
2021/04/03 07:29:41;;;;;;;5.97;3.23;;;;;;;;;;5095624;28;20602;-79
2021/04/03 07:32:08;;;;;;;6.50;3.30;;;;;;;;;;5095574;28;20206;-77
2021/04/03 07:34:39;;;;;;;4.33;3.13;;;;;;;;;;5095348;28;20237;-78
2021/04/03 07:37:08;;;;;;;6.93;3.23;;;;;;;;;;5095268;28;20240;-82
2021/04/03 07:39:36;;;;;;;4.67;2.87;;;;;;;;;;5095318;28;20230;-84
2021/04/03 07:42:03;;;;;;;5.13;3.20;;;;;;;;;;5095046;28;20245;-82
2021/04/03 07:44:33;;;;;;;7.73;2.93;;;;;;;;;;5095504;28;20206;-77
2021/04/03 07:47:16;;;;;;;3.80;3.07;;;;;;;;;;5095215;28;20568;-77
2021/04/03 07:49:43;;;;;;;6.87;3.27;;;;;;;;;;5095510;28;20545;-76
2021/04/03 07:52:09;;;;;;;4.83;2.67;;;;;;;;;;5095588;28;20229;-83
2021/04/03 07:54:36;;;;;;;6.53;2.60;;;;;;;;;;5095697;28;20213;-76
2021/04/03 07:57:03;;;;;;;3.47;2.17;;;;;;;;;;5091575;28;20292;-75
2021/04/03 07:59:49;;;;;;;5.70;2.73;;;;;;;;;;5092766;28;20250;-77
2021/04/03 08:02:17;;;;;;;3.93;2.70;;;;;;;;;;5091687;28;20703;-77
2021/04/03 08:04:44;;;;;;;8.37;2.77;;;;;;;;;;5090842;28;20222;-76
2021/04/03 08:07:11;;;;;;;7.33;2.50;;;;;;;;;;5092276;28;20243;-77
2021/04/03 08:09:37;;;;;;;6.23;3.10;;;;;;;;;;5092435;28;20300;-78
2021/04/03 08:12:04;;;;;;;8.57;3.23;;;;;;;;;;5092230;28;20230;-79
2021/04/03 08:14:31;;;;;;;3.40;2.73;;;;;;;;;;5092421;28;20293;-78
2021/04/03 08:16:58;;;;;;;3.57;2.63;;;;;;;;;;5092034;28;20234;-76
2021/04/03 08:19:25;;;;;;;6.00;3.10;;;;;;;;;;5092452;28;20539;-79
2021/04/03 08:21:52;;;;;;;4.83;2.40;;;;;;;;;;5090082;28;20260;-76
2021/04/03 08:24:19;;;;;;;4.97;2.83;;;;;;;;;;5094153;28;20244;-80
2021/04/03 08:26:47;;;;;;;4.63;2.87;;;;;;;;;;5099659;28;20206;-88
2021/04/03 08:29:19;;;;;;;4.27;2.57;;;;;;;;;;5099532;28;20206;-82
2021/04/03 08:31:47;;;;;;;8.33;2.43;;;;;;;;;;5099201;28;20225;-79
2021/04/03 08:34:13;;;;;;;5.97;2.80;;;;;;;;;;5098313;28;20225;-77
2021/04/03 08:36:39;;;;;;;6.00;2.93;;;;;;;;;;5098576;28;20685;-82
2021/04/03 08:39:08;;;;;;;4.10;2.17;;;;;;;;;;5098876;28;20593;-80
2021/04/03 08:41:35;;;;;;;5.90;2.57;;;;;;;;;;5098600;28;20257;-79
2021/04/03 08:44:01;;;;;;;5.70;3.03;;;;;;;;;;5098394;28;20790;-77
2021/04/03 08:46:28;;;;;;;5.67;2.87;;;;;;;;;;5098210;28;20229;-75
2021/04/03 08:48:55;;;;;;;4.23;2.60;;;;;;;;;;5098037;28;20205;-80
2021/04/03 08:51:21;;;;;;;5.83;2.60;;;;;;;;;;5098471;28;20494;-77
2021/04/03 08:53:48;;;;;;;6.53;2.87;;;;;;;;;;5097670;28;20222;-79
2021/04/03 08:56:18;;;;;;;3.93;2.60;;;;;;;;;;5098349;28;20229;-76
2021/04/03 08:58:45;;;;;;;3.83;2.50;;;;;;;;;;5097725;28;20212;-78
2021/04/03 09:01:11;;;;;;;4.97;2.43;;;;;;;;;;5096227;28;20198;-75
2021/04/03 09:03:38;;;;;;;3.23;2.77;;;;;;;;;;5097774;28;20720;-75
2021/04/03 09:06:05;;;;;;;3.27;2.63;;;;;;;;;;5098306;28;20229;-76
2021/04/03 09:08:31;;;;;;;6.82;2.92;;;;;;;;;;5098220;28;21230;-81
2021/04/03 09:10:58;;;;;;;10.37;3.00;;;;;;;;;;5097310;28;20225;-78
2021/04/03 09:13:31;;;;;;;6.27;3.50;;;;;;;;;;5097142;28;20494;-77
2021/04/03 09:16:05;;;;;;;3.10;2.57;;;;;;;;;;5097798;28;20233;-77
2021/04/03 09:18:31;;;;;;;4.03;2.70;;;;;;;;;;5097241;28;20215;-75
2021/04/03 09:20:57;;;;;;;6.23;2.90;;;;;;;;;;5097599;28;20190;-80
2021/04/03 09:23:24;;;;;;;8.03;3.43;;;;;;;;;;5097054;28;20669;-75
2021/04/03 09:26:03;;;;;;;7.80;3.17;;;;;;;;;;5097308;28;20246;-76
2021/04/03 09:28:35;;;;;;;6.57;3.07;;;;;;;;;;5097019;28;20244;-76
2021/04/03 09:31:01;;;;;;;5.57;2.40;;;;;;;;;;5097005;28;20244;-78
2021/04/03 09:33:27;;;;;;;7.40;2.63;;;;;;;;;;5096227;28;20792;-86
2021/04/03 09:36:06;;;;;;;4.20;2.50;;;;;;;;;;5096295;28;20536;-76
2021/04/03 09:38:33;;;;;;;4.03;2.50;;;;;;;;;;5096055;28;20205;-76
2021/04/03 09:41:00;;;;;;;5.97;2.60;;;;;;;;;;5096788;28;20198;-78
2021/04/03 09:43:39;;;;;;;6.63;2.77;;;;;;;;;;5095402;28;20264;-76
2021/04/03 09:46:05;;;;;;;4.50;2.33;;;;;;;;;;5096299;28;20233;-78
2021/04/03 09:48:31;;;;;;;5.33;2.80;;;;;;;;;;5095718;28;20233;-76
2021/04/03 09:50:57;;;;;;;5.53;3.13;;;;;;;;;;5096647;28;20240;-76
2021/04/03 09:53:28;;;;;;;4.13;2.77;;;;;;;;;;5095914;28;20240;-75
2021/04/03 09:55:54;;;;;;;5.30;2.63;;;;;;;;;;5096569;28;20538;-76
2021/04/03 09:58:20;;;;;;;4.37;2.70;;;;;;;;;;5095612;28;20233;-77
2021/04/03 10:00:47;;;;;;;5.07;2.80;;;;;;;;;;5096292;28;20240;-76
2021/04/03 10:03:13;;;;;;;6.00;2.90;;;;;;;;;;5095827;28;20237;-76
2021/04/03 10:05:39;;;;;;;5.63;3.07;;;;;;;;;;5097105;28;20213;-76
2021/04/03 10:08:06;;;;;;;7.33;2.90;;;;;;;;;;5095437;28;20270;-76
2021/04/03 10:10:32;;;;;;;5.20;2.77;;;;;;;;;;5096899;28;20232;-79
2021/04/03 10:12:58;;;;;;;6.63;2.90;;;;;;;;;;5096614;28;20225;-77
2021/04/03 10:15:25;;;;;;;3.83;2.60;;;;;;;;;;5096716;28;20202;-85
2021/04/03 10:17:51;;;;;;;4.77;2.77;;;;;;;;;;5095955;28;20229;-86
2021/04/03 10:20:18;;;;;;;4.83;2.70;;;;;;;;;;5096102;28;20507;-76
2021/04/03 10:22:44;;;;;;;3.47;2.53;;;;;;;;;;5095655;28;20558;-81
2021/04/03 10:25:11;;;;;;;4.77;2.70;;;;;;;;;;5096488;28;20209;-77
2021/04/03 10:27:37;;;;;;;3.80;2.60;;;;;;;;;;5096145;28;20233;-77
2021/04/03 10:30:04;;;;;;;4.27;2.67;;;;;;;;;;5096366;28;20346;-89
2021/04/03 10:32:31;;;;;;;3.30;2.50;;;;;;;;;;5096147;28;20529;-83
2021/04/03 10:34:57;;;;;;;3.93;2.27;;;;;;;;;;5095845;28;20202;-76
2021/04/03 10:37:24;;;;;;;6.07;2.57;;;;;;;;;;5095727;28;20233;-76
2021/04/03 10:39:50;;;;;;;4.33;2.60;;;;;;;;;;5095740;28;20240;-76
2021/04/03 10:42:16;;;;;;;4.40;3.03;;;;;;;;;;5095236;28;20626;-75
2021/04/03 10:44:42;;;;;;;3.53;2.30;;;;;;;;;;5095707;28;20225;-76
2021/04/03 10:47:08;;;;;;;6.27;2.47;;;;;;;;;;5095075;28;20202;-77
2021/04/03 10:49:34;;;;;;;5.73;2.90;;;;;;;;;;5094575;28;20628;-76
2021/04/03 10:52:02;;;;;;;4.57;2.80;;;;;;;;;;5095001;28;20229;-78
2021/04/03 10:54:28;;;;;;;6.27;2.50;;;;;;;;;;5095441;28;20625;-82
2021/04/03 10:56:54;;;;;;;3.50;2.37;;;;;;;;;;5094984;28;20836;-79
2021/04/03 10:59:20;;;;;;;9.80;2.60;;;;;;;;;;5095674;28;20233;-77
2021/04/03 11:01:46;;;;;;;10.37;2.80;;;;;;;;;;5095072;28;20237;-77
2021/04/03 11:04:12;;;;;;;6.67;2.77;;;;;;;;;;5095958;28;20527;-76
2021/04/03 11:06:38;;;;;;;6.33;2.10;;;;;;;;;;5095610;28;20236;-80
2021/04/03 11:09:05;;;;;;;4.63;3.50;;;;;;;;;;5095756;28;20298;-78
2021/04/03 11:11:32;;;;;;;4.43;2.70;;;;;;;;;;5095122;28;20240;-77
2021/04/03 11:13:58;;;;;;;6.00;2.50;;;;;;;;;;5095655;28;20716;-75
2021/04/03 11:16:26;;;;;;;7.53;3.07;;;;;;;;;;5095317;28;20502;-74
2021/04/03 11:18:52;;;;;;;5.30;2.77;;;;;;;;;;5095920;28;20205;-80
2021/04/03 11:21:19;;;;;;;4.57;2.50;;;;;;;;;;5095634;28;20206;-76
2021/04/03 11:23:45;;;;;;;5.63;2.57;;;;;;;;;;5096739;28;20234;-77
2021/04/03 11:26:12;;;;;;;9.17;2.33;;;;;;;;;;5097428;28;20214;-83
2021/04/03 11:28:38;;;;;;;5.50;1.77;;;;;;;;;;5097647;28;20225;-88
2021/04/03 11:31:05;;;;;;;4.20;1.90;;;;;;;;;;5094822;28;20385;-80
2021/04/03 11:33:31;;;;;;;3.67;2.23;;;;;;;;;;5095610;28;20229;-82
2021/04/03 11:35:57;;;;;;;6.87;2.13;;;;;;;;;;5096454;28;20232;-82
2021/04/03 11:38:23;;;;;;;3.77;2.10;;;;;;;;;;5096473;28;20206;-82
2021/04/03 11:40:49;;;;;;;4.40;1.90;;;;;;;;;;5097123;28;20198;-81
2021/04/03 11:43:16;;;;;;;5.40;2.30;;;;;;;;;;5095439;28;20245;-80
2021/04/03 11:45:42;;;;;;;4.73;1.67;;;;;;;;;;5095435;28;20498;-76
2021/04/03 11:48:09;;;;;;;6.20;2.67;;;;;;;;;;5095411;28;20221;-84
2021/04/03 11:50:35;;;;;;;3.47;2.03;;;;;;;;;;5095864;28;20202;-80
2021/04/03 11:53:01;;;;;;;5.97;2.03;;;;;;;;;;5095812;28;20221;-78
2021/04/03 11:55:27;;;;;;;6.07;2.47;;;;;;;;;;5094876;28;20226;-75
2021/04/03 11:57:54;;;;;;;4.77;2.03;;;;;;;;;;5094419;28;20551;-80
2021/04/03 12:00:21;;;;;;;7.53;2.47;;;;;;;;;;5096836;28;20232;-77
2021/04/03 12:02:48;;;;;;;7.70;2.37;;;;;;;;;;5100037;28;20236;-82
2021/04/03 12:05:15;;;;;;;4.53;2.40;;;;;;;;;;5100214;28;20210;-87
2021/04/03 12:07:42;;;;;;;4.00;2.00;;;;;;;;;;5099908;28;20210;-84
2021/04/03 12:10:09;;;;;;;5.00;1.90;;;;;;;;;;5098589;28;20701;-77
2021/04/03 12:12:36;;;;;;;3.77;1.67;;;;;;;;;;5098753;28;20607;-77
2021/04/03 12:15:03;;;;;;;8.97;4.03;;;;;;;;;;5101266;28;20212;-80
2021/04/03 12:17:30;;;;;;;3.87;1.77;;;;;;;;;;5102849;28;20202;-84
2021/04/03 12:19:56;;;;;;;6.67;2.20;;;;;;;;;;5099555;28;20202;-79
2021/04/03 12:22:22;;;;;;;2.17;1.60;;;;;;;;;;5098338;28;21147;-81
2021/04/03 12:24:49;;;;;;;2.80;1.10;;;;;;;;;;5099422;28;20232;-89
2021/04/03 12:27:15;;;;;;;2.75;1.42;;;;;;;;;;5098451;28;20759;-83
2021/04/03 12:29:41;;;;;;;3.93;1.50;;;;;;;;;;5099731;28;20205;-80
2021/04/03 12:32:08;;;;;;;4.53;1.37;;;;;;;;;;5093616;28;20226;-76
2021/04/03 12:34:34;;;;;;;3.00;1.70;;;;;;;;;;5103927;28;20408;-77
2021/04/03 12:37:01;;;;;;;2.53;1.50;;;;;;;;;;5107602;28;20206;-85
2021/04/03 12:39:27;;;;;;;2.30;1.40;;;;;;;;;;5097814;28;20206;-79
2021/04/03 12:41:53;;;;;;;4.17;1.47;;;;;;;;;;5100206;28;20647;-84
2021/04/03 12:44:19;;;;;;;3.30;1.67;;;;;;;;;;5098698;28;20224;-77
2021/04/03 12:46:45;;;;;;;2.83;1.47;;;;;;;;;;5099636;28;20229;-78
2021/04/03 12:49:12;;;;;;;0.90;0.90;;;;;;;;;;5100336;28;20653;-82
2021/04/03 12:51:39;;;;;;;1.93;1.40;;;;;;;;;;5100166;28;20194;-76
2021/04/03 12:54:05;;;;;;;2.50;1.30;;;;;;;;;;5100045;28;20206;-82
2021/04/03 12:56:31;;;;;;;4.07;1.40;;;;;;;;;;5098843;28;20230;-79
2021/04/03 12:58:57;;;;;;;3.53;1.20;;;;;;;;;;5105724;28;20205;-81
2021/04/03 13:01:24;;;;;;;2.13;1.30;;;;;;;;;;5112016;28;20206;-81
2021/04/03 13:03:51;;;;;;;2.23;1.07;;;;;;;;;;5106292;28;20225;-85
2021/04/03 13:06:18;;;;;;;1.60;1.30;;;;;;;;;;5107398;28;20209;-89
2021/04/03 13:08:44;;;;;;;2.27;1.07;;;;;;;;;;5102546;28;20521;-75
2021/04/03 13:11:11;;;;;;;3.60;1.77;;;;;;;;;;5097854;28;21120;-79
2021/04/03 13:13:37;;;;;;;2.60;1.40;;;;;;;;;;5101566;28;20214;-76
2021/04/03 13:16:03;;;;;;;2.53;1.10;;;;;;;;;;5099232;28;20206;-75
2021/04/03 13:18:29;;;;;;;6.37;1.40;;;;;;;;;;5097327;28;20236;-75
2021/04/03 13:20:55;;;;;;;2.43;1.40;;;;;;;;;;5097368;28;20524;-78
2021/04/03 13:23:21;;;;;;;2.57;1.33;;;;;;;;;;5097226;28;20245;-76
2021/04/03 13:25:48;;;;;;;5.45;1.40;;;;;;;;;;5097204;28;20249;-76
2021/04/03 13:28:15;;;;;;;6.63;1.50;;;;;;;;;;5096524;28;20515;-76
2021/04/03 13:30:41;;;;;;;4.20;1.60;;;;;;;;;;5096522;28;20213;-77
2021/04/03 13:33:07;;;;;;;1.90;1.58;;;;;;;;;;5095986;28;21250;-75
2021/04/03 13:35:33;;;;;;;2.47;1.10;;;;;;;;;;5096333;28;20633;-75
2021/04/03 13:37:59;;;;;;;1.77;1.33;;;;;;;;;;5095472;28;20233;-75
2021/04/03 13:40:25;;;;;;;2.10;1.23;;;;;;;;;;5096275;28;20229;-76
2021/04/03 13:42:52;;;;;;;5.35;1.45;;;;;;;;;;5096106;28;20697;-77
2021/04/03 13:45:18;;;;;;;1.50;1.10;;;;;;;;;;5095972;28;20530;-77
2021/04/03 13:47:45;;;;;;;1.95;1.70;;;;;;;;;;5095879;28;20237;-76
2021/04/03 13:50:11;;;;;;;1.70;1.27;;;;;;;;;;5095848;28;20236;-78
2021/04/03 13:52:37;;;;;;;3.40;1.42;;;;;;;;;;5095908;28;20260;-79
2021/04/03 13:55:04;;;;;;;1.25;1.17;;;;;;;;;;5095778;28;20233;-79
2021/04/03 13:57:31;;;;;;;3.78;1.67;;;;;;;;;;5095692;28;20241;-78
2021/04/03 13:59:58;;;;;;;1.85;1.40;;;;;;;;;;5095523;28;20238;-78
2021/04/03 14:02:24;;;;;;;2.60;1.38;;;;;;;;;;5095621;28;20230;-77
2021/04/03 14:04:50;;;;;;;6.32;1.63;;;;;;;;;;5095600;28;20229;-78
2021/04/03 14:07:16;;;;;;;2.55;1.70;;;;;;;;;;5095617;28;20491;-79
2021/04/03 14:09:43;;;;;;;1.92;1.58;;;;;;;;;;5095287;28;20665;-78
2021/04/03 14:12:09;;;;;;;2.63;1.77;;;;;;;;;;5095628;28;20253;-77
2021/04/03 14:14:36;;;;;;;3.42;1.88;;;;;;;;;;5095571;28;20206;-77
2021/04/03 14:17:03;;;;;;;1.70;1.40;;;;;;;;;;5095210;28;20236;-78
2021/04/03 14:19:29;;;;;;;2.15;1.40;;;;;;;;;;5095501;28;20222;-77
2021/04/03 14:21:55;;;;;;;2.10;1.30;;;;;;;;;;5095206;28;20684;-77
2021/04/03 14:24:21;;;;;;;2.05;1.60;;;;;;;;;;5095162;28;20249;-78
2021/04/03 14:26:47;;;;;;;3.38;1.70;;;;;;;;;;5095143;28;20233;-76
2021/04/03 14:29:13;;;;;;;2.28;1.90;;;;;;;;;;5095346;28;20543;-77
2021/04/03 14:31:41;;;;;;;2.60;1.30;;;;;;;;;;5094998;28;20532;-78
2021/04/03 14:34:08;;;;;;;2.95;1.63;;;;;;;;;;5095093;28;20633;-79
2021/04/03 14:36:34;;;;;;;2.50;1.90;;;;;;;;;;5095027;28;20208;-77
2021/04/03 14:39:01;;;;;;;1.90;1.67;;;;;;;;;;5095084;28;20225;-77
2021/04/03 14:41:27;;;;;;;2.83;1.70;;;;;;;;;;5094632;28;20327;-78
2021/04/03 14:43:53;;;;;;;2.72;1.52;;;;;;;;;;5094826;28;20246;-78